Miramar Beach, Florida
Current Conditions -  °F | °C
As of 2:53 PM on Friday 31 Oct 2014 (Local Time) from KDTS Reporting Station
Clear Clear  
Wind Chill: 75°   Ceiling: Unl
Heat Index: 75°   Visibility: 10mi
Dew Point: 43°   Wind: 5mph
Humidity: 32%   Direction: NA
Pressure: 29.9"   Gusts: NA
Location:  30.3738°N, 86.3602°W
Report Text: KDTS 311953Z AUTO VRB04KT 10SM CLR 24/06 A2990 RMK AO2 SLP123 T02390061 TSNO
Loading
Personal Weather Stations






























Interactive Weather Map
Tropical Storm Tracking
New forecast layout! Learn more

10-Day Weather Forecast

Advertisements
Track Severe Weather on mobile